KJMS

Jamestown Regional Airport

Airport
ICAO code
KJMS
IATA Code
JMS
Summary
ICAO Region
NAM
ICAO Territory
Location

Jamestown, North Dakota

Serving
Jamestown
Elevation
1500 ft
Coordinates
46° 55' 35" N , 98° 40' 44" W
KCC
Airport CFIT
Altimeter Temperature Error Correction
Airport WX
Cumulonimbus
Metar
KJMS 250356Z AUTO 28012KT 10SM CLR 06/04 A2965 RMK AO2 SLP048 T00560039

Jamestown Regional Airport is a public use airport located 2 nm northeast of the central business district of Jamestown, a city in Stutsman County, North Dakota, USA.

Airport map

Aerial View

SKYbrary Partners:

Safety knowledge contributed by: